Time;durP1;ratioP1;P1;durP2;ratioP2;P2;SDS_P1;SDS_P2;PMS_P1;PMS_P2;Temp;Humidity;BMP_temperature;BMP_pressure;BME280_temperature;BME280_humidity;BME280_pressure;Samples;Min_cycle;Max_cycle;Signal;HPM_P1;HPM_P2
2021/12/27 00:05:57;;;;;;;25.73;23.50;;;;;;;;;;12549409;28;20033;-73
2021/12/27 00:11:59;;;;;;;30.60;27.85;;;;;;;;;;12550294;28;20049;-73
2021/12/27 00:18:01;;;;;;;28.90;26.42;;;;;;;;;;12550384;28;20410;-73
2021/12/27 00:24:03;;;;;;;26.52;24.13;;;;;;;;;;12548614;28;20401;-73
2021/12/27 00:30:05;;;;;;;25.67;23.48;;;;;;;;;;12548841;28;20029;-73
2021/12/27 00:36:07;;;;;;;23.65;21.70;;;;;;;;;;12548685;28;20045;-73
2021/12/27 00:42:09;;;;;;;23.60;21.55;;;;;;;;;;12548013;28;20036;-73
2021/12/27 00:48:10;;;;;;;25.00;22.77;;;;;;;;;;12548017;28;20044;-73
2021/12/27 00:54:12;;;;;;;24.20;22.10;;;;;;;;;;12547741;28;20049;-73
2021/12/27 01:00:18;;;;;;;26.75;24.55;;;;;;;;;;12547434;28;20043;-73
2021/12/27 01:06:19;;;;;;;25.50;23.30;;;;;;;;;;12545931;28;20032;-73
2021/12/27 01:12:47;;;;;;;28.58;26.10;;;;;;;;;;12547686;28;20060;-74
2021/12/27 01:18:49;;;;;;;25.70;23.60;;;;;;;;;;12545194;28;20041;-74
2021/12/27 01:24:51;;;;;;;25.90;23.65;;;;;;;;;;12546072;28;20532;-73
2021/12/27 01:30:52;;;;;;;23.67;21.77;;;;;;;;;;12546129;28;20512;-73
2021/12/27 01:36:56;;;;;;;24.40;22.38;;;;;;;;;;12545450;28;20045;-74
2021/12/27 01:42:59;;;;;;;28.63;26.13;;;;;;;;;;12546925;28;20218;-74
2021/12/27 01:49:01;;;;;;;25.80;23.75;;;;;;;;;;12545498;28;20041;-73
2021/12/27 01:55:03;;;;;;;22.27;20.48;;;;;;;;;;12545512;28;20064;-72
2021/12/27 02:01:06;;;;;;;21.95;20.23;;;;;;;;;;12527459;28;20029;-73
2021/12/27 02:07:08;;;;;;;22.45;20.75;;;;;;;;;;12526737;28;20029;-72
2021/12/27 02:13:11;;;;;;;27.75;25.52;;;;;;;;;;12544141;28;20060;-74
2021/12/27 02:19:12;;;;;;;26.38;24.27;;;;;;;;;;12543023;28;20513;-74
2021/12/27 02:25:14;;;;;;;28.30;26.00;;;;;;;;;;12543885;28;20044;-74
2021/12/27 02:31:17;;;;;;;26.00;23.80;;;;;;;;;;12543908;28;20033;-74
2021/12/27 02:37:19;;;;;;;22.67;20.77;;;;;;;;;;12542517;28;20041;-74
2021/12/27 02:43:22;;;;;;;27.73;25.30;;;;;;;;;;12544840;28;20474;-74
2021/12/27 02:49:24;;;;;;;25.98;23.77;;;;;;;;;;12543314;28;20452;-74
2021/12/27 02:55:25;;;;;;;23.23;21.33;;;;;;;;;;12525500;28;20498;-74
2021/12/27 03:01:28;;;;;;;21.17;19.58;;;;;;;;;;12542170;28;20055;-74
2021/12/27 03:07:30;;;;;;;21.08;19.38;;;;;;;;;;12542869;28;20071;-74
2021/12/27 03:13:33;;;;;;;22.17;20.38;;;;;;;;;;12541910;28;20486;-74
2021/12/27 03:19:35;;;;;;;20.20;18.48;;;;;;;;;;12542291;28;20667;-74
2021/12/27 03:25:36;;;;;;;19.88;18.17;;;;;;;;;;12545316;28;20025;-74
2021/12/27 03:31:38;;;;;;;27.10;24.80;;;;;;;;;;12552549;28;20032;-74
2021/12/27 03:37:41;;;;;;;22.90;20.98;;;;;;;;;;12550253;28;20486;-74
2021/12/27 03:43:43;;;;;;;;;;;;;;;;;;12551375;28;20056;-74
2021/12/27 03:49:44;;;;;;;19.42;17.85;;;;;;;;;;12551378;28;20412;-74
2021/12/27 03:55:46;;;;;;;18.65;17.08;;;;;;;;;;12549436;28;20374;-74
2021/12/27 04:01:48;;;;;;;17.50;16.08;;;;;;;;;;12549333;28;20044;-74
2021/12/27 04:07:59;;;;;;;18.83;17.23;;;;;;;;;;12548607;28;20037;-74
2021/12/27 04:14:04;;;;;;;18.63;17.13;;;;;;;;;;12549765;28;20064;-74
2021/12/27 04:20:06;;;;;;;20.70;18.88;;;;;;;;;;12549045;28;20044;-73
2021/12/27 04:26:08;;;;;;;18.40;16.80;;;;;;;;;;12547967;28;20041;-73
2021/12/27 04:32:10;;;;;;;20.67;18.98;;;;;;;;;;12549633;28;20048;-73
2021/12/27 04:38:11;;;;;;;19.88;18.17;;;;;;;;;;12546600;28;20038;-72
2021/12/27 04:44:13;;;;;;;17.35;15.95;;;;;;;;;;12548622;28;20485;-74
2021/12/27 04:50:15;;;;;;;16.67;15.38;;;;;;;;;;12546729;28;20036;-74
2021/12/27 04:56:17;;;;;;;18.90;17.30;;;;;;;;;;12548511;28;20041;-74
2021/12/27 05:02:18;;;;;;;18.73;17.13;;;;;;;;;;12547466;28;20040;-74
2021/12/27 05:08:20;;;;;;;17.40;15.90;;;;;;;;;;12546218;28;20064;-74
2021/12/27 05:14:22;;;;;;;17.52;16.02;;;;;;;;;;12547117;28;20061;-74
2021/12/27 05:20:24;;;;;;;16.17;14.88;;;;;;;;;;12547063;28;20363;-74
2021/12/27 05:26:25;;;;;;;16.05;14.75;;;;;;;;;;12528665;28;20287;-73
2021/12/27 05:32:27;;;;;;;16.42;15.13;;;;;;;;;;12544922;28;20037;-73
2021/12/27 05:38:29;;;;;;;15.80;14.50;;;;;;;;;;12545062;28;20045;-73
2021/12/27 05:44:30;;;;;;;14.93;13.73;;;;;;;;;;12545704;28;20482;-73
2021/12/27 05:50:32;;;;;;;20.38;18.52;;;;;;;;;;12542868;28;20033;-73
2021/12/27 05:56:34;;;;;;;16.73;15.35;;;;;;;;;;12544889;28;20040;-73
2021/12/27 06:02:36;;;;;;;19.20;17.60;;;;;;;;;;12544732;28;20025;-73
2021/12/27 06:08:38;;;;;;;13.57;12.48;;;;;;;;;;12543407;28;20024;-73
2021/12/27 06:14:39;;;;;;;15.88;14.57;;;;;;;;;;12544087;28;20068;-74
2021/12/27 06:20:41;;;;;;;17.77;16.17;;;;;;;;;;12543309;28;20067;-73
2021/12/27 06:26:43;;;;;;;17.00;15.55;;;;;;;;;;12526302;28;20470;-74
2021/12/27 06:32:45;;;;;;;15.68;14.38;;;;;;;;;;12542647;28;20028;-74
2021/12/27 06:38:46;;;;;;;17.25;15.75;;;;;;;;;;12542805;28;20037;-74
2021/12/27 06:44:48;;;;;;;15.13;13.77;;;;;;;;;;12543726;28;20398;-74
2021/12/27 06:50:50;;;;;;;14.82;13.73;;;;;;;;;;12543551;28;20391;-73
2021/12/27 06:56:54;;;;;;;15.98;14.68;;;;;;;;;;12542434;28;20045;-74
2021/12/27 07:02:56;;;;;;;14.88;13.68;;;;;;;;;;12550097;28;20037;-74
2021/12/27 07:08:58;;;;;;;14.52;13.43;;;;;;;;;;12551634;28;20422;-74
2021/12/27 07:14:59;;;;;;;18.70;17.10;;;;;;;;;;12552385;28;20052;-74
2021/12/27 07:21:01;;;;;;;18.27;16.77;;;;;;;;;;12551582;28;20033;-74
2021/12/27 07:27:03;;;;;;;15.50;14.30;;;;;;;;;;12552304;28;20470;-74
2021/12/27 07:33:04;;;;;;;16.63;15.13;;;;;;;;;;12550538;28;20510;-73
2021/12/27 07:39:07;;;;;;;13.85;12.75;;;;;;;;;;12551860;28;20490;-74
2021/12/27 07:45:08;;;;;;;14.50;13.33;;;;;;;;;;12551278;28;20426;-74
2021/12/27 07:51:10;;;;;;;15.80;14.50;;;;;;;;;;12551078;28;20045;-73
2021/12/27 07:57:12;;;;;;;16.92;15.52;;;;;;;;;;12549360;28;20044;-75
2021/12/27 08:03:14;;;;;;;15.45;14.15;;;;;;;;;;12549671;28;20037;-74
2021/12/27 08:09:16;;;;;;;15.00;13.68;;;;;;;;;;12549537;28;20080;-73
2021/12/27 08:15:17;;;;;;;15.38;14.07;;;;;;;;;;12549002;28;20045;-73
2021/12/27 08:21:20;;;;;;;15.27;13.88;;;;;;;;;;12549202;28;20382;-73
2021/12/27 08:27:24;;;;;;;13.23;12.03;;;;;;;;;;12548830;28;20029;-74
2021/12/27 08:33:26;;;;;;;14.10;12.90;;;;;;;;;;12548736;28;20478;-73
2021/12/27 08:39:27;;;;;;;15.25;13.93;;;;;;;;;;12549267;28;20053;-73
2021/12/27 08:45:29;;;;;;;15.60;14.13;;;;;;;;;;12546917;28;20048;-73
2021/12/27 08:51:31;;;;;;;15.00;13.70;;;;;;;;;;12548606;28;20045;-73
2021/12/27 08:57:34;;;;;;;15.93;14.63;;;;;;;;;;12529625;28;20037;-74
2021/12/27 09:03:36;;;;;;;17.83;16.27;;;;;;;;;;12547381;28;20044;-74
2021/12/27 09:09:37;;;;;;;17.67;16.08;;;;;;;;;;12546984;28;20059;-73
2021/12/27 09:15:39;;;;;;;12.32;11.25;;;;;;;;;;12545617;28;20045;-74
2021/12/27 09:21:41;;;;;;;18.02;16.45;;;;;;;;;;12546164;28;20044;-74
2021/12/27 09:27:42;;;;;;;23.52;21.33;;;;;;;;;;12546140;28;20044;-73
2021/12/27 09:33:44;;;;;;;17.15;15.70;;;;;;;;;;12546163;28;20041;-73
2021/12/27 09:39:53;;;;;;;16.40;15.00;;;;;;;;;;12546063;28;20044;-73
2021/12/27 09:45:55;;;;;;;17.38;15.82;;;;;;;;;;12543815;28;20040;-73
2021/12/27 09:51:57;;;;;;;14.27;12.98;;;;;;;;;;12543647;28;20029;-73
2021/12/27 09:58:00;;;;;;;12.55;11.45;;;;;;;;;;12526991;28;20037;-72
2021/12/27 10:04:02;;;;;;;10.73;9.83;;;;;;;;;;12544060;28;20033;-73
2021/12/27 10:10:04;;;;;;;8.82;8.07;;;;;;;;;;12542809;28;20379;-73
2021/12/27 10:16:13;;;;;;;11.57;10.40;;;;;;;;;;12526970;28;20045;-73
2021/12/27 10:22:15;;;;;;;10.70;9.70;;;;;;;;;;12543783;28;20402;-74
2021/12/27 10:28:24;;;;;;;10.70;9.80;;;;;;;;;;12542632;28;20493;-73
2021/12/27 10:34:30;;;;;;;9.85;9.05;;;;;;;;;;12543381;28;20045;-73
2021/12/27 10:40:33;;;;;;;11.15;10.15;;;;;;;;;;12542643;28;20052;-74
2021/12/27 10:46:35;;;;;;;9.23;8.43;;;;;;;;;;12544318;28;20520;-74
2021/12/27 10:52:52;;;;;;;9.15;8.45;;;;;;;;;;12543843;28;20028;-73
2021/12/27 10:58:59;;;;;;;8.18;7.47;;;;;;;;;;12543041;28;20044;-72
2021/12/27 11:05:18;;;;;;;6.78;6.28;;;;;;;;;;12542119;28;20040;-73
2021/12/27 11:11:21;;;;;;;6.28;5.78;;;;;;;;;;12541530;28;20061;-73
2021/12/27 11:17:22;;;;;;;8.07;7.30;;;;;;;;;;12541332;28;20037;-73
2021/12/27 11:23:26;;;;;;;6.93;6.32;;;;;;;;;;12542805;28;20482;-73
2021/12/27 11:29:27;;;;;;;6.35;5.85;;;;;;;;;;12541304;28;20037;-73
2021/12/27 11:35:34;;;;;;;5.35;4.93;;;;;;;;;;12542446;28;20426;-73
2021/12/27 11:41:36;;;;;;;7.20;6.60;;;;;;;;;;12542808;28;20036;-73
2021/12/27 11:47:39;;;;;;;11.20;10.10;;;;;;;;;;12543239;28;20041;-73
2021/12/27 11:53:44;;;;;;;11.63;10.60;;;;;;;;;;12550970;28;20032;-73
2021/12/27 11:59:46;;;;;;;10.57;9.52;;;;;;;;;;12533520;28;20486;-73
2021/12/27 12:05:49;;;;;;;8.85;8.10;;;;;;;;;;12549800;28;20041;-73
2021/12/27 12:12:02;;;;;;;7.68;7.07;;;;;;;;;;12549044;28;20060;-73
2021/12/27 12:18:16;;;;;;;6.85;6.22;;;;;;;;;;12549730;28;20048;-73
2021/12/27 12:24:22;;;;;;;7.30;6.70;;;;;;;;;;12549310;28;20040;-73
2021/12/27 12:30:27;;;;;;;6.40;5.90;;;;;;;;;;12549585;28;20038;-73
2021/12/27 12:36:29;;;;;;;6.07;5.57;;;;;;;;;;12547795;28;20048;-73
2021/12/27 12:42:30;;;;;;;6.72;6.13;;;;;;;;;;12549235;28;20040;-73
2021/12/27 12:48:32;;;;;;;5.10;4.60;;;;;;;;;;12546992;28;20091;-73
2021/12/27 12:54:39;;;;;;;5.93;5.43;;;;;;;;;;12546646;28;20410;-73
2021/12/27 13:00:40;;;;;;;4.40;4.05;;;;;;;;;;12546040;28;20040;-72
2021/12/27 13:06:46;;;;;;;3.85;3.55;;;;;;;;;;12547496;28;20072;-73
2021/12/27 13:12:48;;;;;;;4.13;3.80;;;;;;;;;;12535328;28;20054;-73
2021/12/27 13:18:50;;;;;;;2.85;2.65;;;;;;;;;;12495835;28;20045;-73
2021/12/27 13:24:52;;;;;;;3.72;3.30;;;;;;;;;;12498306;28;20064;-73
2021/12/27 13:31:05;;;;;;;4.93;4.53;;;;;;;;;;12479129;28;20079;-73
2021/12/27 13:37:06;;;;;;;4.07;3.77;;;;;;;;;;12496230;28;20052;-73
2021/12/27 13:43:08;;;;;;;3.83;3.50;;;;;;;;;;12497363;28;20029;-73
2021/12/27 13:49:10;;;;;;;4.38;4.05;;;;;;;;;;12494991;28;20049;-73
2021/12/27 13:55:21;;;;;;;5.53;5.03;;;;;;;;;;12495296;28;20045;-73
2021/12/27 14:01:55;;;;;;;5.05;4.65;;;;;;;;;;12494470;28;20056;-73
2021/12/27 14:08:10;;;;;;;6.22;5.63;;;;;;;;;;12495026;28;20494;-73
2021/12/27 14:14:12;;;;;;;7.10;6.40;;;;;;;;;;12495141;28;20061;-73
2021/12/27 14:20:14;;;;;;;6.70;6.07;;;;;;;;;;12493684;28;20522;-73
2021/12/27 14:26:16;;;;;;;6.82;6.13;;;;;;;;;;12494537;28;20491;-73
2021/12/27 14:32:18;;;;;;;6.75;6.15;;;;;;;;;;12494620;28;20029;-73
2021/12/27 14:38:21;;;;;;;7.57;6.88;;;;;;;;;;12492924;28;20137;-72
2021/12/27 14:44:23;;;;;;;;;;;;;;;;;;12492958;28;20513;-73
2021/12/27 14:50:25;;;;;;;9.27;8.48;;;;;;;;;;12493445;28;19909;-73
2021/12/27 14:56:28;;;;;;;9.60;8.80;;;;;;;;;;12494221;28;20041;-73
2021/12/27 15:02:29;;;;;;;6.82;6.22;;;;;;;;;;12492306;28;20041;-73
2021/12/27 15:08:31;;;;;;;7.43;6.75;;;;;;;;;;12492233;28;20045;-73
2021/12/27 15:14:32;;;;;;;9.50;8.60;;;;;;;;;;12492082;28;20053;-73
2021/12/27 15:20:34;;;;;;;9.07;8.27;;;;;;;;;;12492991;28;20037;-73
2021/12/27 15:26:36;;;;;;;9.10;8.20;;;;;;;;;;12501356;28;20032;-73
2021/12/27 15:32:38;;;;;;;8.23;7.43;;;;;;;;;;12502652;28;20509;-73
2021/12/27 15:38:40;;;;;;;6.13;5.63;;;;;;;;;;12484836;28;20041;-73
2021/12/27 15:44:41;;;;;;;14.15;12.95;;;;;;;;;;12501878;28;20032;-73
2021/12/27 15:50:43;;;;;;;9.60;8.75;;;;;;;;;;12500855;28;20056;-74
2021/12/27 15:56:45;;;;;;;12.13;10.93;;;;;;;;;;12500584;28;20383;-73
2021/12/27 16:02:47;;;;;;;11.35;10.35;;;;;;;;;;12500899;28;20044;-73
2021/12/27 16:08:49;;;;;;;11.10;10.03;;;;;;;;;;12500720;28;20025;-74
2021/12/27 16:14:51;;;;;;;10.38;9.38;;;;;;;;;;12500455;28;20052;-73
2021/12/27 16:20:52;;;;;;;10.40;9.50;;;;;;;;;;12500059;28;20537;-73
2021/12/27 16:26:54;;;;;;;10.15;9.23;;;;;;;;;;12482334;28;20029;-74
2021/12/27 16:32:58;;;;;;;10.13;9.18;;;;;;;;;;12499667;28;20037;-73
2021/12/27 16:39:00;;;;;;;10.80;9.80;;;;;;;;;;12499934;28;20042;-73
2021/12/27 16:45:02;;;;;;;12.02;10.93;;;;;;;;;;12497947;28;20037;-73
2021/12/27 16:51:04;;;;;;;11.68;10.57;;;;;;;;;;12481767;28;20061;-74
2021/12/27 16:57:06;;;;;;;12.13;10.97;;;;;;;;;;12498887;28;20402;-73
2021/12/27 17:03:09;;;;;;;11.70;10.60;;;;;;;;;;12496991;28;20037;-73
2021/12/27 17:09:10;;;;;;;11.38;10.27;;;;;;;;;;12498610;28;20327;-73
2021/12/27 17:15:12;;;;;;;11.82;10.57;;;;;;;;;;12497426;28;20380;-74
2021/12/27 17:21:14;;;;;;;15.18;13.68;;;;;;;;;;12496112;28;20394;-73
2021/12/27 17:27:16;;;;;;;14.73;13.33;;;;;;;;;;12497106;28;20052;-73
2021/12/27 17:33:18;;;;;;;15.65;14.25;;;;;;;;;;12496167;28;20033;-73
2021/12/27 17:39:22;;;;;;;13.38;12.23;;;;;;;;;;12496958;28;20049;-73
2021/12/27 17:45:26;;;;;;;14.52;13.13;;;;;;;;;;12496847;28;20041;-73
2021/12/27 17:51:28;;;;;;;13.25;12.05;;;;;;;;;;12494775;28;20502;-73
2021/12/27 17:57:30;;;;;;;13.73;12.52;;;;;;;;;;12494618;28;20037;-73
2021/12/27 18:03:31;;;;;;;15.48;13.98;;;;;;;;;;12494455;28;20463;-74
2021/12/27 18:09:35;;;;;;;13.15;11.95;;;;;;;;;;12494188;28;20049;-74
2021/12/27 18:15:37;;;;;;;12.80;11.63;;;;;;;;;;12495540;28;20045;-74
2021/12/27 18:21:40;;;;;;;14.05;12.65;;;;;;;;;;12494400;28;20042;-74
2021/12/27 18:27:42;;;;;;;15.50;14.00;;;;;;;;;;12494729;28;20028;-74
2021/12/27 18:33:43;;;;;;;17.67;15.98;;;;;;;;;;12493747;28;20041;-74
2021/12/27 18:39:45;;;;;;;16.52;15.10;;;;;;;;;;12493789;28;20053;-73
2021/12/27 18:45:47;;;;;;;16.25;14.68;;;;;;;;;;12494218;28;20033;-74
2021/12/27 18:51:49;;;;;;;15.95;14.45;;;;;;;;;;12494531;28;20037;-73
2021/12/27 18:57:50;;;;;;;17.13;15.52;;;;;;;;;;12498948;28;20041;-73
2021/12/27 19:03:52;;;;;;;15.40;14.00;;;;;;;;;;12503782;28;20471;-73
2021/12/27 19:09:54;;;;;;;13.48;12.18;;;;;;;;;;12503294;28;20121;-72
2021/12/27 19:15:56;;;;;;;16.50;14.90;;;;;;;;;;12503264;28;20505;-73
2021/12/27 19:21:57;;;;;;;14.90;13.48;;;;;;;;;;12502487;28;20029;-74
2021/12/27 19:27:59;;;;;;;16.58;14.82;;;;;;;;;;12501254;28;20037;-73
2021/12/27 19:34:01;;;;;;;16.27;14.77;;;;;;;;;;12500989;28;20033;-74
2021/12/27 19:40:03;;;;;;;17.60;15.80;;;;;;;;;;12501123;28;20065;-74
2021/12/27 19:46:05;;;;;;;17.63;15.93;;;;;;;;;;12502055;28;20487;-73
2021/12/27 19:52:07;;;;;;;15.83;14.27;;;;;;;;;;12501535;28;20041;-73
2021/12/27 19:58:10;;;;;;;16.20;14.67;;;;;;;;;;12500932;28;20383;-74
2021/12/27 20:04:12;;;;;;;19.13;17.40;;;;;;;;;;12499773;28;20034;-73
2021/12/27 20:10:16;;;;;;;17.70;15.88;;;;;;;;;;12500269;28;20053;-74
2021/12/27 20:16:18;;;;;;;14.90;13.50;;;;;;;;;;12499725;28;20496;-74
2021/12/27 20:22:20;;;;;;;21.65;19.55;;;;;;;;;;12499130;28;20036;-73
2021/12/27 20:28:22;;;;;;;18.73;16.92;;;;;;;;;;12482290;28;20044;-74
2021/12/27 20:34:24;;;;;;;17.80;16.08;;;;;;;;;;12499519;28;20037;-73
2021/12/27 20:40:26;;;;;;;21.73;19.63;;;;;;;;;;12499946;28;20042;-73
2021/12/27 20:46:29;;;;;;;16.52;15.00;;;;;;;;;;12497981;28;20037;-73
2021/12/27 20:52:30;;;;;;;17.97;16.37;;;;;;;;;;12498921;28;20475;-73
2021/12/27 20:58:32;;;;;;;18.60;16.57;;;;;;;;;;12497424;28;20296;-74
2021/12/27 21:04:34;;;;;;;16.45;14.85;;;;;;;;;;12497325;28;20041;-72
2021/12/27 21:10:40;;;;;;;17.95;16.25;;;;;;;;;;12497022;28;20054;-73
2021/12/27 21:16:42;;;;;;;16.08;14.50;;;;;;;;;;12498659;28;20046;-73
2021/12/27 21:22:44;;;;;;;16.35;14.82;;;;;;;;;;12496922;28;20045;-73
2021/12/27 21:28:46;;;;;;;21.98;19.63;;;;;;;;;;12496072;28;20030;-74
2021/12/27 21:34:48;;;;;;;23.05;20.73;;;;;;;;;;12495101;28;20045;-73
2021/12/27 21:40:50;;;;;;;22.13;19.87;;;;;;;;;;12496247;28;20037;-74
2021/12/27 21:46:52;;;;;;;21.35;19.05;;;;;;;;;;12495145;28;20037;-73
2021/12/27 21:52:57;;;;;;;19.77;17.77;;;;;;;;;;12494794;28;20045;-74
2021/12/27 21:58:59;;;;;;;17.17;15.55;;;;;;;;;;12495468;28;20042;-74
2021/12/27 22:05:01;;;;;;;18.33;16.55;;;;;;;;;;12495570;28;20037;-73
2021/12/27 22:11:03;;;;;;;15.65;14.15;;;;;;;;;;12495554;28;20053;-73
2021/12/27 22:17:05;;;;;;;17.80;15.83;;;;;;;;;;12493949;28;20034;-73
2021/12/27 22:23:06;;;;;;;17.30;15.68;;;;;;;;;;12494817;28;20041;-73
2021/12/27 22:29:08;;;;;;;19.48;17.60;;;;;;;;;;12493744;28;20030;-73
2021/12/27 22:35:11;;;;;;;16.38;14.88;;;;;;;;;;12492652;28;20414;-73
2021/12/27 22:41:12;;;;;;;17.17;15.67;;;;;;;;;;12494123;28;20030;-73
2021/12/27 22:47:16;;;;;;;17.13;15.52;;;;;;;;;;12493905;28;20053;-73
2021/12/27 22:53:17;;;;;;;14.15;12.90;;;;;;;;;;12494045;28;20033;-73
2021/12/27 22:59:19;;;;;;;16.95;15.25;;;;;;;;;;12493963;28;20052;-73
2021/12/27 23:05:21;;;;;;;17.42;15.75;;;;;;;;;;12494133;28;20025;-73
2021/12/27 23:11:23;;;;;;;17.85;16.02;;;;;;;;;;12493808;28;20057;-73
2021/12/27 23:17:25;;;;;;;14.77;13.57;;;;;;;;;;12492263;28;20215;-73
2021/12/27 23:23:26;;;;;;;15.43;13.85;;;;;;;;;;12494048;28;20036;-73
2021/12/27 23:29:28;;;;;;;16.83;15.27;;;;;;;;;;12492224;28;20040;-74
2021/12/27 23:35:36;;;;;;;15.98;14.57;;;;;;;;;;12475860;28;20483;-73
2021/12/27 23:41:39;;;;;;;17.15;15.45;;;;;;;;;;12495288;28;20033;-73
2021/12/27 23:47:40;;;;;;;17.27;15.73;;;;;;;;;;12500589;28;20033;-73
2021/12/27 23:53:44;;;;;;;16.30;14.70;;;;;;;;;;12500998;28;20038;-73
2021/12/27 23:59:46;;;;;;;17.73;16.23;;;;;;;;;;12501665;28;20406;-73
